Time;durP1;ratioP1;P1;durP2;ratioP2;P2;SDS_P1;SDS_P2;PMS_P1;PMS_P2;Temp;Humidity;BMP_temperature;BMP_pressure;BME280_temperature;BME280_humidity;BME280_pressure;Samples;Min_cycle;Max_cycle;Signal;HPM_P1;HPM_P2
2021/11/06 00:01:41;;;;;;;12.48;10.32;;;;;;;8.72;100.00;97478.19;5001531;28;20583;-52
2021/11/06 00:04:10;;;;;;;13.13;10.10;;;;;;;8.86;100.00;97474.59;5004552;28;20082;-55
2021/11/06 00:06:39;;;;;;;14.05;10.57;;;;;;;9.23;100.00;97478.06;4991370;28;20488;-54
2021/11/06 00:09:09;;;;;;;13.73;10.77;;;;;;;9.47;100.00;97477.22;4979443;28;20074;-55
2021/11/06 00:11:38;;;;;;;15.35;11.00;;;;;;;9.37;100.00;97478.84;4991919;28;20069;-55
2021/11/06 00:14:06;;;;;;;13.68;10.43;;;;;;;9.00;100.00;97492.03;4990321;28;20134;-57
2021/11/06 00:16:35;;;;;;;12.13;10.05;;;;;;;9.18;100.00;97485.44;4987268;28;20096;-53
2021/11/06 00:19:03;;;;;;;12.77;10.23;;;;;;;9.02;100.00;97480.44;4999353;28;20100;-53
2021/11/06 00:21:31;;;;;;;12.60;10.35;;;;;;;9.14;100.00;97481.34;4986274;28;20077;-50
2021/11/06 00:24:00;;;;;;;13.82;11.25;;;;;;;8.59;100.00;97485.25;4984611;28;20575;-55
2021/11/06 00:26:30;;;;;;;13.38;11.30;;;;;;;8.75;100.00;97485.03;4988500;28;20073;-55
2021/11/06 00:28:58;;;;;;;13.48;10.52;;;;;;;9.20;100.00;97478.28;5000280;28;20072;-57
2021/11/06 00:31:27;;;;;;;12.45;10.70;;;;;;;9.42;100.00;97487.25;4974626;28;20074;-53
2021/11/06 00:33:55;;;;;;;12.32;10.20;;;;;;;9.55;100.00;97477.50;4981827;28;20085;-53
2021/11/06 00:36:24;;;;;;;12.82;10.55;;;;;;;9.17;100.00;97473.22;4979494;28;20078;-53
2021/11/06 00:38:53;;;;;;;12.90;10.05;;;;;;;8.94;100.00;97476.66;4997971;28;20082;-58
2021/11/06 00:41:22;;;;;;;11.77;9.93;;;;;;;9.13;100.00;97484.09;4996836;28;20066;-56
2021/11/06 00:43:51;;;;;;;11.07;9.32;;;;;;;9.55;100.00;97472.22;4987562;28;20069;-55
2021/11/06 00:46:20;;;;;;;13.90;10.02;;;;;;;9.75;100.00;97468.94;5000511;28;20707;-57
2021/11/06 00:48:48;;;;;;;12.15;10.38;;;;;;;9.71;100.00;97474.56;4977702;28;20086;-55
2021/11/06 00:51:17;;;;;;;13.57;10.93;;;;;;;9.62;100.00;97470.81;4986411;28;20081;-56
2021/11/06 00:53:46;;;;;;;13.60;9.98;;;;;;;9.78;100.00;97469.69;4987213;28;20555;-54
2021/11/06 00:56:15;;;;;;;12.85;10.73;;;;;;;9.59;100.00;97470.19;4991714;28;20070;-58
2021/11/06 00:58:43;;;;;;;14.48;10.60;;;;;;;9.48;100.00;97463.09;4986824;28;20077;-57
2021/11/06 01:01:13;;;;;;;11.98;10.70;;;;;;;9.63;100.00;97472.47;4991808;28;20082;-56
2021/11/06 01:03:42;;;;;;;13.27;10.82;;;;;;;9.48;100.00;97469.19;4979975;28;20077;-57
2021/11/06 01:06:10;;;;;;;14.90;10.85;;;;;;;9.55;100.00;97472.22;5001815;28;20080;-57
2021/11/06 01:08:39;;;;;;;11.70;10.05;;;;;;;9.12;100.00;97469.25;5006272;28;20089;-48
2021/11/06 01:11:07;;;;;;;13.55;10.20;;;;;;;9.00;100.00;97465.72;5006706;28;20554;-53
2021/11/06 01:13:36;;;;;;;11.77;9.70;;;;;;;8.70;100.00;97473.97;5001649;28;21463;-54
2021/11/06 01:16:05;;;;;;;10.52;8.90;;;;;;;8.99;100.00;97470.13;5009589;28;20093;-53
2021/11/06 01:18:35;;;;;;;10.75;9.43;;;;;;;9.07;100.00;97472.22;4998716;28;20080;-57
2021/11/06 01:21:04;;;;;;;9.85;8.77;;;;;;;9.05;100.00;97458.34;4997679;28;20077;-58
2021/11/06 01:23:33;;;;;;;11.18;8.93;;;;;;;8.83;100.00;97473.97;5004434;28;20065;-56
2021/11/06 01:26:02;;;;;;;10.80;9.20;;;;;;;8.97;100.00;97476.44;5009555;28;20104;-59
2021/11/06 01:28:31;;;;;;;12.50;9.43;;;;;;;8.76;100.00;97479.66;5013039;28;20096;-55
2021/11/06 01:30:59;;;;;;;9.77;8.68;;;;;;;8.84;100.00;97465.94;5011169;28;20531;-57
2021/11/06 01:33:28;;;;;;;9.77;8.70;;;;;;;8.65;100.00;97466.44;4991361;28;20453;-53
2021/11/06 01:35:58;;;;;;;12.25;9.60;;;;;;;9.09;100.00;97461.59;4982305;28;20132;-56
2021/11/06 01:38:26;;;;;;;11.23;9.57;;;;;;;9.27;100.00;97460.25;4981488;28;20072;-57
2021/11/06 01:40:55;;;;;;;11.38;9.23;;;;;;;9.27;100.00;97460.25;4986355;28;20127;-57
2021/11/06 01:43:23;;;;;;;12.40;10.13;;;;;;;9.14;100.00;97455.03;5002850;28;20477;-56
2021/11/06 01:45:56;;;;;;;11.10;9.68;;;;;;;8.87;100.00;97464.91;5005051;28;20084;-55
2021/11/06 01:48:24;;;;;;;12.23;10.20;;;;;;;8.76;100.00;97468.31;5000626;28;20058;-56
2021/11/06 01:50:53;;;;;;;11.70;9.75;;;;;;;8.80;100.00;97461.88;5008698;28;20062;-52
2021/11/06 01:53:23;;;;;;;11.50;9.45;;;;;;;8.59;100.00;97471.28;5008693;28;20073;-55
2021/11/06 01:55:57;;;;;;;17.38;9.98;;;;;;;8.75;100.00;97464.00;5002486;28;20070;-58
2021/11/06 01:58:27;;;;;;;19.23;9.98;;;;;;;8.87;100.00;97459.66;5008578;28;20097;-57
2021/11/06 02:00:56;;;;;;;10.48;9.30;;;;;;;9.04;100.00;97454.00;5002527;28;20096;-53
2021/11/06 02:03:25;;;;;;;12.25;9.32;;;;;;;8.73;100.00;97458.00;5002197;28;20581;-56
2021/11/06 02:05:53;;;;;;;12.55;9.77;;;;;;;8.97;100.00;97464.13;4996382;28;20066;-54
2021/11/06 02:08:23;;;;;;;13.38;9.20;;;;;;;8.82;100.00;97461.78;4996525;28;20074;-58
2021/11/06 02:10:52;;;;;;;12.82;9.52;;;;;;;9.10;100.00;97456.22;5003138;28;20072;-55
2021/11/06 02:13:20;;;;;;;16.05;9.93;;;;;;;9.20;100.00;97451.13;4992886;28;20108;-58
2021/11/06 02:15:49;;;;;;;11.80;9.60;;;;;;;9.27;100.00;97461.09;5004779;28;20188;-58
2021/11/06 02:18:17;;;;;;;12.13;9.25;;;;;;;9.19;100.00;97458.19;4998248;28;20065;-56
2021/11/06 02:20:48;;;;;;;13.13;9.52;;;;;;;9.20;100.00;97454.59;5005764;28;20414;-55
2021/11/06 02:23:17;;;;;;;11.98;9.45;;;;;;;9.12;100.00;97459.59;5006177;28;20065;-58
2021/11/06 02:25:45;;;;;;;10.73;8.80;;;;;;;9.32;100.00;97459.91;5006431;28;20390;-55
2021/11/06 02:28:34;;;;;;;10.32;8.82;;;;;;;9.40;100.00;97458.41;5005124;28;20085;-54
2021/11/06 02:31:02;;;;;;;13.90;9.48;;;;;;;9.42;100.00;97468.81;5006640;28;20089;-55
2021/11/06 02:33:31;;;;;;;10.93;9.50;;;;;;;9.12;100.00;97462.22;4998054;28;20107;-57
2021/11/06 02:36:02;;;;;;;10.55;8.93;;;;;;;9.02;100.00;97464.66;5004635;28;20079;-57
2021/11/06 02:38:30;;;;;;;11.63;8.65;;;;;;;8.94;100.00;97469.59;5002713;28;20076;-55
2021/11/06 02:41:00;;;;;;;12.98;8.90;;;;;;;8.97;100.00;97461.50;5004981;28;20073;-56
2021/11/06 02:43:29;;;;;;;11.07;9.05;;;;;;;9.28;100.00;97456.66;5006290;28;20627;-57
2021/11/06 02:45:57;;;;;;;12.73;8.95;;;;;;;9.23;100.00;97451.75;5007919;28;20523;-58
2021/11/06 02:48:26;;;;;;;14.10;9.02;;;;;;;8.89;100.00;97455.97;4989236;28;20151;-59
2021/11/06 02:50:54;;;;;;;11.55;8.93;;;;;;;9.01;100.00;97454.22;5000050;28;20066;-53
2021/11/06 02:53:24;;;;;;;11.82;9.20;;;;;;;9.01;100.00;97456.84;5004175;28;20468;-54
2021/11/06 02:55:56;;;;;;;12.00;9.43;;;;;;;9.06;100.00;97457.38;5004933;28;20065;-58
2021/11/06 02:58:24;;;;;;;13.30;9.60;;;;;;;9.26;100.00;97462.03;5003693;28;20093;-56
2021/11/06 03:00:53;;;;;;;10.77;9.07;;;;;;;9.27;100.00;97460.25;5006390;28;20084;-54
2021/11/06 03:03:21;;;;;;;14.65;9.55;;;;;;;9.26;100.00;97463.84;4982820;28;20532;-53
2021/11/06 03:05:50;;;;;;;10.48;9.38;;;;;;;9.06;100.00;97473.19;5001183;28;20084;-49
2021/11/06 03:08:19;;;;;;;14.43;10.13;;;;;;;9.29;100.00;97471.53;4996210;28;20067;-58
2021/11/06 03:10:49;;;;;;;13.07;10.32;;;;;;;9.24;100.00;97465.72;4984678;28;20468;-57
2021/11/06 03:13:17;;;;;;;11.18;9.82;;;;;;;9.40;100.00;97476.00;5001594;28;20454;-54
2021/11/06 03:15:46;;;;;;;11.02;9.63;;;;;;;8.97;100.00;97473.81;4986532;28;20620;-56
2021/11/06 03:18:14;;;;;;;10.65;9.55;;;;;;;9.30;100.00;97467.09;4981864;28;20070;-54
2021/11/06 03:20:42;;;;;;;11.30;9.77;;;;;;;9.33;100.00;97478.22;4994621;28;20092;-57
2021/11/06 03:23:11;;;;;;;11.93;9.23;;;;;;;8.97;100.00;97474.66;5003975;28;20479;-56
2021/11/06 03:25:39;;;;;;;12.30;10.38;;;;;;;9.31;100.00;97477.50;5003305;28;20066;-53
2021/11/06 03:28:09;;;;;;;11.65;9.77;;;;;;;8.86;100.00;97479.00;5005095;28;20491;-53
2021/11/06 03:30:38;;;;;;;15.43;10.43;;;;;;;8.27;100.00;97487.47;5003799;28;20081;-55
2021/11/06 03:33:06;;;;;;;10.75;9.43;;;;;;;8.16;100.00;97482.09;5002763;28;20077;-54
2021/11/06 03:35:35;;;;;;;10.93;9.60;;;;;;;8.52;100.00;97482.22;4998643;28;20084;-57
2021/11/06 03:38:04;;;;;;;10.15;9.05;;;;;;;8.61;100.00;97480.75;5002443;28;20069;-57
2021/11/06 03:40:33;;;;;;;10.93;9.25;;;;;;;8.47;100.00;97483.50;5001978;28;20086;-56
2021/11/06 03:43:02;;;;;;;13.88;9.77;;;;;;;8.61;100.00;97486.00;5001891;28;20132;-55
2021/11/06 03:45:32;;;;;;;11.55;9.63;;;;;;;8.48;100.00;97488.63;4986710;28;20466;-59
2021/11/06 03:48:00;;;;;;;11.35;9.88;;;;;;;8.95;100.00;97486.25;4994763;28;20130;-55
2021/11/06 03:50:29;;;;;;;12.32;9.75;;;;;;;8.88;100.00;97483.22;4991053;28;20085;-55
2021/11/06 03:52:57;;;;;;;11.07;9.43;;;;;;;9.14;100.00;97476.09;4982195;28;20474;-54
2021/11/06 03:55:26;;;;;;;9.98;8.98;;;;;;;8.46;100.00;97489.69;4981044;28;20149;-57
2021/11/06 03:57:54;;;;;;;13.02;9.88;;;;;;;8.47;100.00;97488.75;4989186;28;20112;-58
2021/11/06 04:00:23;;;;;;;10.93;9.38;;;;;;;8.88;100.00;97482.34;5003925;28;20092;-57
2021/11/06 04:02:53;;;;;;;10.82;9.18;;;;;;;8.92;100.00;97482.06;5001473;28;20069;-57
2021/11/06 04:05:22;;;;;;;10.82;9.30;;;;;;;9.00;100.00;97482.34;5005316;28;20069;-56
2021/11/06 04:07:50;;;;;;;11.05;9.30;;;;;;;8.89;100.00;97487.53;5003486;28;20073;-58
2021/11/06 04:10:19;;;;;;;12.38;9.35;;;;;;;8.41;100.00;97486.53;5006874;28;20081;-56
2021/11/06 04:12:47;;;;;;;10.20;8.57;;;;;;;8.87;100.00;97484.16;5005624;28;20089;-58
2021/11/06 04:15:16;;;;;;;10.88;9.25;;;;;;;8.38;100.00;97484.97;5005136;28;20073;-54
2021/11/06 04:17:45;;;;;;;10.85;9.45;;;;;;;8.39;100.00;97489.25;5008300;28;20066;-59
2021/11/06 04:20:15;;;;;;;12.45;9.20;;;;;;;8.42;100.00;97485.59;4998036;28;20053;-54
2021/11/06 04:22:44;;;;;;;10.95;9.23;;;;;;;8.49;100.00;97487.69;5005834;28;20491;-60
2021/11/06 04:25:13;;;;;;;11.80;9.77;;;;;;;8.42;100.00;97486.44;5008660;28;20476;-59
2021/11/06 04:27:41;;;;;;;11.82;9.80;;;;;;;8.29;100.00;97489.03;4999987;28;20073;-58
2021/11/06 04:30:10;;;;;;;12.07;9.50;;;;;;;8.03;100.00;97489.97;5004918;28;20065;-59
2021/11/06 04:32:39;;;;;;;13.45;10.55;;;;;;;7.58;100.00;97495.53;5003741;28;20074;-54
2021/11/06 04:35:08;;;;;;;11.20;10.00;;;;;;;7.83;100.00;97494.75;5005091;28;20088;-56
2021/11/06 04:37:38;;;;;;;13.02;10.48;;;;;;;8.15;100.00;97489.13;5001969;28;20540;-58
2021/11/06 04:40:09;;;;;;;12.80;10.40;;;;;;;8.29;100.00;97490.81;5004462;28;20081;-58
2021/11/06 04:42:37;;;;;;;12.10;9.20;;;;;;;7.94;100.00;97483.53;5004587;28;20070;-56
2021/11/06 04:45:07;;;;;;;11.50;9.25;;;;;;;7.75;100.00;97496.22;5004594;28;20092;-58
2021/11/06 04:47:35;;;;;;;11.15;9.43;;;;;;;8.32;100.00;97494.06;5004041;28;20065;-59
2021/11/06 04:50:06;;;;;;;9.48;8.43;;;;;;;8.35;100.00;97493.03;5004566;28;20065;-52
2021/11/06 04:52:35;;;;;;;10.43;8.90;;;;;;;7.98;100.00;97492.03;4998254;28;20085;-55
2021/11/06 04:55:08;;;;;;;9.57;8.57;;;;;;;8.16;100.00;97490.81;5003840;28;20089;-56
2021/11/06 04:57:37;;;;;;;10.55;8.60;;;;;;;8.30;100.00;97498.59;4999328;28;20069;-58
2021/11/06 05:00:08;;;;;;;11.70;8.90;;;;;;;8.16;100.00;97501.34;5003560;28;20081;-58
2021/11/06 05:02:36;;;;;;;10.25;8.32;;;;;;;8.25;100.00;97500.69;5001091;28;20065;-59
2021/11/06 05:05:06;;;;;;;8.73;7.93;;;;;;;8.04;100.00;97505.63;4999912;28;20066;-55
2021/11/06 05:07:35;;;;;;;10.48;8.30;;;;;;;7.95;100.00;97501.00;4997257;28;20074;-56
2021/11/06 05:10:07;;;;;;;8.40;7.57;;;;;;;7.91;100.00;97501.28;5005152;28;20074;-58
2021/11/06 05:12:36;;;;;;;10.18;8.07;;;;;;;7.97;100.00;97495.63;5006183;28;20077;-54
2021/11/06 05:15:06;;;;;;;9.30;8.20;;;;;;;7.88;100.00;97501.47;5005860;28;20072;-54
2021/11/06 05:17:34;;;;;;;9.55;8.55;;;;;;;7.89;100.00;97492.69;4992321;28;20074;-56
2021/11/06 05:20:05;;;;;;;10.20;8.50;;;;;;;7.72;100.00;97502.50;4980148;28;20318;-59
2021/11/06 05:22:34;;;;;;;9.50;8.48;;;;;;;7.73;100.00;97498.94;4989040;28;20073;-58
2021/11/06 05:25:04;;;;;;;11.80;8.73;;;;;;;7.73;100.00;97500.72;4989342;28;20061;-53
2021/11/06 05:27:34;;;;;;;11.65;8.82;;;;;;;7.66;100.00;97504.69;4980053;28;20069;-54
2021/11/06 05:30:04;;;;;;;10.05;8.60;;;;;;;7.12;100.00;97508.16;5000039;28;20575;-56
2021/11/06 05:32:33;;;;;;;9.50;8.50;;;;;;;6.98;100.00;97510.81;5000590;28;20077;-56
2021/11/06 05:35:02;;;;;;;9.95;8.80;;;;;;;7.10;100.00;97508.25;4994081;28;20061;-55
2021/11/06 05:37:31;;;;;;;11.02;8.75;;;;;;;7.13;100.00;97510.69;4994269;28;20101;-58
2021/11/06 05:39:59;;;;;;;10.07;8.40;;;;;;;6.41;100.00;97509.06;4984093;28;20089;-55
2021/11/06 05:42:28;;;;;;;9.50;8.25;;;;;;;6.45;100.00;97512.34;5004804;28;20084;-59
2021/11/06 05:44:58;;;;;;;9.43;8.25;;;;;;;6.59;100.00;97520.22;5003497;28;20460;-55
2021/11/06 05:47:26;;;;;;;15.68;8.82;;;;;;;6.84;100.00;97503.81;5004042;28;20116;-59
2021/11/06 05:49:57;;;;;;;12.25;8.90;;;;;;;6.46;100.00;97520.09;5005171;28;20057;-58
2021/11/06 05:52:34;;;;;;;19.15;8.13;;;;;;;6.14;100.00;97525.50;5004342;28;20559;-56
2021/11/06 05:55:03;;;;;;;12.50;6.68;;;;;;;6.06;100.00;97526.91;4981807;28;20089;-55
2021/11/06 05:57:33;;;;;;;17.63;6.32;;;;;;;5.41;100.00;97527.97;5003000;28;20072;-52
2021/11/06 06:00:03;;;;;;;15.50;6.28;;;;;;;5.50;100.00;97534.44;4990283;28;20077;-59
2021/11/06 06:02:32;;;;;;;28.40;7.60;;;;;;;5.99;100.00;97533.41;4982571;28;20061;-52
2021/11/06 06:05:00;;;;;;;7.22;6.38;;;;;;;6.20;100.00;97531.34;4985591;28;20093;-56
2021/11/06 06:07:29;;;;;;;8.20;7.40;;;;;;;6.27;100.00;97523.00;4982304;28;20486;-54
2021/11/06 06:09:57;;;;;;;10.55;6.78;;;;;;;6.07;100.00;97533.81;4981933;28;20533;-57
2021/11/06 06:12:26;;;;;;;15.25;8.13;;;;;;;6.17;100.00;97533.19;4978615;28;20077;-58
2021/11/06 06:14:54;;;;;;;17.40;7.78;;;;;;;6.03;100.00;97537.56;4989815;28;20061;-53
2021/11/06 06:17:24;;;;;;;50.20;8.52;;;;;;;5.91;100.00;97536.44;4999523;28;20494;-56
2021/11/06 06:19:57;;;;;;;12.68;8.25;;;;;;;5.61;100.00;97531.19;4997019;28;20062;-57
2021/11/06 06:22:26;;;;;;;13.82;8.32;;;;;;;5.86;100.00;97539.34;4991126;28;20577;-55
2021/11/06 06:24:54;;;;;;;25.77;9.90;;;;;;;6.08;100.00;97540.72;4989691;28;20094;-57
2021/11/06 06:27:23;;;;;;;61.63;9.95;;;;;;;6.17;100.00;97540.22;5005477;28;20477;-52
2021/11/06 06:29:51;;;;;;;12.57;8.40;;;;;;;6.17;100.00;97540.22;5008338;28;20073;-55
2021/11/06 06:32:20;;;;;;;10.52;7.22;;;;;;;5.85;100.00;97539.41;5003311;28;20080;-55
2021/11/06 06:34:50;;;;;;;314.02;22.05;;;;;;;5.81;100.00;97541.38;4998180;28;20065;-53
2021/11/06 06:37:18;;;;;;;34.03;9.25;;;;;;;5.90;100.00;97548.69;5003242;28;20073;-57
2021/11/06 06:39:47;;;;;;;31.05;10.02;;;;;;;6.00;100.00;97553.44;5010128;28;20372;-54
2021/11/06 06:42:15;;;;;;;11.80;9.18;;;;;;;5.76;100.00;97551.28;5008262;28;20076;-54
2021/11/06 06:44:44;;;;;;;12.60;9.00;;;;;;;6.01;100.00;97558.56;4997152;28;20070;-56
2021/11/06 06:47:13;;;;;;;13.23;9.00;;;;;;;6.17;100.00;97555.91;4984508;28;20457;-52
2021/11/06 06:49:42;;;;;;;23.42;17.20;;;;;;;6.16;100.00;97562.94;5000991;28;20062;-52
2021/11/06 06:52:12;;;;;;;20.42;7.97;;;;;;;6.08;100.00;97564.31;5008663;28;20077;-55
2021/11/06 06:54:40;;;;;;;14.70;8.23;;;;;;;6.11;100.00;97562.34;4995083;28;20069;-55
2021/11/06 06:57:09;;;;;;;30.73;8.65;;;;;;;6.25;100.00;97561.53;5008218;28;20073;-55
2021/11/06 06:59:38;;;;;;;21.33;7.85;;;;;;;6.22;100.00;97574.81;5003032;28;20715;-55
2021/11/06 07:02:07;;;;;;;12.25;7.43;;;;;;;6.27;100.00;97578.03;5009170;28;20073;-59
2021/11/06 07:04:36;;;;;;;11.00;7.80;;;;;;;6.52;100.00;97581.78;5010463;28;20806;-54
2021/11/06 07:07:09;;;;;;;10.10;6.97;;;;;;;6.68;100.00;97579.13;5002569;28;20074;-50
2021/11/06 07:09:39;;;;;;;17.73;7.18;;;;;;;6.50;100.00;97587.13;5002269;28;20074;-55
2021/11/06 07:12:08;;;;;;;9.77;8.10;;;;;;;6.49;100.00;97581.97;4994908;28;20062;-50
2021/11/06 07:14:37;;;;;;;10.38;8.05;;;;;;;6.23;100.00;97586.13;5007704;28;20092;-53
2021/11/06 07:17:05;;;;;;;8.88;7.75;;;;;;;6.48;100.00;97581.13;5000251;28;20069;-57
2021/11/06 07:19:34;;;;;;;11.23;7.50;;;;;;;6.76;100.00;97579.47;5007712;28;20090;-57
2021/11/06 07:22:03;;;;;;;7.90;7.10;;;;;;;6.95;100.00;97585.28;5002101;28;20080;-54
2021/11/06 07:24:31;;;;;;;7.68;6.80;;;;;;;7.08;100.00;97588.81;5001184;28;20125;-51
2021/11/06 07:27:01;;;;;;;7.05;6.35;;;;;;;7.08;100.00;97586.19;5003303;28;20104;-56
2021/11/06 07:29:30;;;;;;;8.38;6.72;;;;;;;7.05;100.00;97598.66;5002958;28;20077;-57
2021/11/06 07:31:58;;;;;;;6.75;6.15;;;;;;;7.16;100.00;97597.97;5007545;28;20062;-54
2021/11/06 07:34:27;;;;;;;7.97;6.68;;;;;;;7.13;100.00;97597.25;5006795;28;20476;-56
2021/11/06 07:36:55;;;;;;;8.60;7.72;;;;;;;7.40;100.00;97608.72;5002460;28;20083;-57
2021/11/06 07:39:26;;;;;;;9.05;7.88;;;;;;;7.53;100.00;97602.59;5002757;28;20069;-55
2021/11/06 07:41:58;;;;;;;9.38;8.38;;;;;;;7.73;100.00;97597.88;4998686;28;20073;-58
2021/11/06 07:44:28;;;;;;;10.80;8.45;;;;;;;7.59;100.00;97601.38;5002932;28;20042;-56
2021/11/06 07:46:57;;;;;;;11.88;8.88;;;;;;;7.57;100.00;97609.38;5007275;28;20074;-57
2021/11/06 07:49:26;;;;;;;16.60;8.73;;;;;;;7.53;100.00;97605.22;4998559;28;20081;-55
2021/11/06 07:51:57;;;;;;;11.82;8.32;;;;;;;7.41;100.00;97611.28;5002530;28;20089;-57
2021/11/06 07:54:26;;;;;;;10.38;8.90;;;;;;;7.80;100.00;97604.41;5000198;28;20073;-55
2021/11/06 07:56:55;;;;;;;9.75;8.75;;;;;;;8.00;100.00;97603.13;5000857;28;20153;-56
2021/11/06 07:59:24;;;;;;;12.50;9.07;;;;;;;7.72;100.00;97611.94;5003865;28;20077;-55
2021/11/06 08:01:54;;;;;;;10.07;8.63;;;;;;;8.36;100.00;97605.09;5012814;28;20057;-59
2021/11/06 08:04:23;;;;;;;11.73;9.63;;;;;;;7.93;100.00;97607.09;4997404;28;20081;-56
2021/11/06 08:06:51;;;;;;;13.35;10.20;;;;;;;8.42;100.00;97603.88;5008840;28;20073;-53
2021/11/06 08:09:20;;;;;;;11.93;9.80;;;;;;;8.65;100.00;97603.16;5000505;28;20077;-59
2021/11/06 08:11:48;;;;;;;13.38;10.48;;;;;;;8.91;100.00;97611.03;5000528;28;20069;-57
2021/11/06 08:14:17;;;;;;;11.07;9.88;;;;;;;9.18;100.00;97605.66;4996513;28;20265;-53
2021/11/06 08:16:45;;;;;;;12.10;9.63;;;;;;;8.96;100.00;97609.78;5004893;28;20948;-56
2021/11/06 08:19:15;;;;;;;11.68;8.85;;;;;;;8.48;100.00;97608.72;5004078;28;20081;-58
2021/11/06 08:21:43;;;;;;;9.55;8.32;;;;;;;8.50;100.00;97610.31;4998069;28;21389;-55
2021/11/06 08:24:12;;;;;;;10.50;8.80;;;;;;;8.55;100.00;97612.63;5000046;28;20126;-58
2021/11/06 08:26:41;;;;;;;9.55;8.48;;;;;;;8.58;100.00;97612.41;5000059;28;20084;-56
2021/11/06 08:29:09;;;;;;;11.55;9.10;;;;;;;8.65;100.00;97608.44;5002375;28;20097;-56
2021/11/06 08:31:37;;;;;;;9.30;8.35;;;;;;;9.23;100.00;97608.81;4985286;28;20082;-58
2021/11/06 08:34:06;;;;;;;10.10;8.63;;;;;;;9.30;100.00;97602.16;4982494;28;20155;-57
2021/11/06 08:36:37;;;;;;;9.57;8.25;;;;;;;9.62;100.00;97605.13;4980831;28;20070;-55
2021/11/06 08:39:06;;;;;;;9.23;8.23;;;;;;;9.82;100.00;97603.69;5000802;28;20077;-59
2021/11/06 08:41:34;;;;;;;12.52;9.38;;;;;;;10.31;100.00;97605.38;5004889;28;20074;-59
2021/11/06 08:44:03;;;;;;;10.60;9.27;;;;;;;10.49;100.00;97602.31;4999833;28;20586;-58
2021/11/06 08:46:31;;;;;;;12.95;8.48;;;;;;;10.15;100.00;97591.59;4999820;28;20076;-57
2021/11/06 08:49:00;;;;;;;11.52;8.73;;;;;;;10.59;100.00;97601.50;5008922;28;20085;-54
2021/11/06 08:51:28;;;;;;;11.30;8.93;;;;;;;10.06;100.00;97600.22;4994620;28;20484;-59
2021/11/06 08:53:58;;;;;;;12.35;9.82;;;;;;;10.53;100.00;97580.88;4999558;28;20453;-57
2021/11/06 08:56:28;;;;;;;11.23;8.95;;;;;;;10.95;100.00;97590.88;5013551;28;20076;-58
2021/11/06 08:58:57;;;;;;;11.38;9.63;;;;;;;10.54;100.00;97592.25;5003469;28;20092;-53
2021/11/06 09:01:26;;;;;;;12.45;9.48;;;;;;;11.06;100.00;97588.25;5002685;28;20086;-59
2021/11/06 09:03:56;;;;;;;11.45;9.57;;;;;;;11.48;100.00;97584.00;5001633;28;20138;-57
2021/11/06 09:06:25;;;;;;;13.48;10.43;;;;;;;11.11;100.00;97592.22;5000670;28;20077;-55
2021/11/06 09:08:53;;;;;;;16.60;9.98;;;;;;;11.31;100.00;97590.63;5006190;28;20448;-55
2021/11/06 09:11:23;;;;;;;12.07;10.02;;;;;;;10.76;100.00;97588.81;5000448;28;20069;-52
2021/11/06 09:13:54;;;;;;;21.83;9.93;;;;;;;10.76;100.00;97589.66;4994457;28;20764;-57
2021/11/06 09:16:23;;;;;;;13.15;10.98;;;;;;;11.57;100.00;97580.63;5010203;28;20206;-56
2021/11/06 09:18:53;;;;;;;15.52;11.00;;;;;;;12.07;100.00;97580.97;4996268;28;20086;-56
2021/11/06 09:21:24;;;;;;;18.17;13.32;;;;;;;11.43;100.00;97590.63;5003673;28;20081;-55
2021/11/06 09:23:53;;;;;;;16.88;12.32;;;;;;;11.37;100.00;97595.44;5007718;28;20078;-57
2021/11/06 09:26:23;;;;;;;16.02;11.80;;;;;;;11.63;100.00;97598.66;5010103;28;20069;-54
2021/11/06 09:28:52;;;;;;;20.23;13.63;;;;;;;10.97;100.00;97604.78;5007255;28;20520;-56
2021/11/06 09:31:20;;;;;;;18.50;13.43;;;;;;;10.50;100.00;97606.66;5004329;28;20081;-57
2021/11/06 09:33:49;;;;;;;17.13;13.52;;;;;;;10.35;100.00;97609.44;5009229;28;20465;-57
2021/11/06 09:36:17;;;;;;;22.30;15.30;;;;;;;10.58;100.00;97613.00;5007462;28;20066;-53
2021/11/06 09:38:46;;;;;;;20.05;13.52;;;;;;;11.30;100.00;97611.88;5003829;28;20077;-54
2021/11/06 09:41:17;;;;;;;19.65;13.75;;;;;;;11.65;100.00;97604.63;5007776;28;20061;-54
2021/11/06 09:43:46;;;;;;;;;;;;;;;11.20;100.00;97606.47;4997652;28;20067;-51
2021/11/06 09:46:16;;;;;;;22.98;15.48;;;;;;;11.20;100.00;97603.00;5011001;28;19973;-55
2021/11/06 09:48:46;;;;;;;17.90;13.52;;;;;;;11.04;100.00;97601.53;5005938;28;21352;-55
2021/11/06 09:51:16;;;;;;;19.55;14.00;;;;;;;11.33;100.00;97601.91;5000993;28;20468;-54
2021/11/06 09:53:47;;;;;;;19.45;14.75;;;;;;;11.28;100.00;97601.44;5015831;28;20623;-55
2021/11/06 09:56:17;;;;;;;25.73;17.25;;;;;;;11.32;100.00;97608.16;5009737;28;20065;-51
2021/11/06 09:58:47;;;;;;;;;;;;;;;11.83;100.00;97591.72;5010043;28;20161;-54
2021/11/06 10:01:16;;;;;;;23.63;15.40;;;;;;;11.40;100.00;97600.47;5011921;28;19975;-57
2021/11/06 10:03:44;;;;;;;22.15;15.52;;;;;;;11.75;100.00;97595.97;4998664;28;20458;-53
2021/11/06 10:06:18;;;;;;;23.17;16.08;;;;;;;10.95;100.00;97594.38;5003358;28;20077;-57
2021/11/06 10:08:48;;;;;;;22.30;16.40;;;;;;;11.25;100.00;97593.78;4996365;28;20073;-53
2021/11/06 10:11:18;;;;;;;22.73;16.90;;;;;;;11.78;100.00;97586.00;4991914;28;20088;-59
2021/11/06 10:13:54;;;;;;;22.95;16.02;;;;;;;12.02;100.00;97583.19;5009046;28;20068;-57
2021/11/06 10:16:31;;;;;;;21.25;16.13;;;;;;;11.39;100.00;97592.69;5008936;28;20085;-57
2021/11/06 10:19:07;;;;;;;22.63;16.70;;;;;;;10.97;100.00;97594.22;5010110;28;20081;-54
2021/11/06 10:21:36;;;;;;;22.42;17.02;;;;;;;11.55;100.00;97582.53;4996346;28;20139;-57
2021/11/06 10:24:05;;;;;;;23.27;16.88;;;;;;;12.11;100.00;97585.06;5005210;28;20077;-55
2021/11/06 10:26:34;;;;;;;23.30;17.67;;;;;;;11.59;100.00;97588.44;5008545;28;20073;-58
2021/11/06 10:29:10;;;;;;;23.67;17.90;;;;;;;11.93;100.00;97577.81;5006234;28;20076;-59
2021/11/06 10:32:03;;;;;;;26.38;17.15;;;;;;;12.25;100.00;97580.44;5004436;28;20219;-54
2021/11/06 10:34:39;;;;;;;21.40;16.52;;;;;;;12.27;100.00;97587.28;4976096;28;20466;-58
2021/11/06 10:37:12;;;;;;;27.90;16.88;;;;;;;12.81;100.00;97574.84;5003967;28;20081;-56
2021/11/06 10:39:55;;;;;;;21.83;16.98;;;;;;;12.66;100.00;97576.94;5002701;28;20069;-55
2021/11/06 10:42:24;;;;;;;20.70;16.38;;;;;;;13.08;100.00;97576.91;5008507;28;20065;-56
2021/11/06 10:45:09;;;;;;;21.38;16.08;;;;;;;12.55;100.00;97572.56;5008753;28;20073;-54
2021/11/06 10:47:53;;;;;;;22.17;16.92;;;;;;;12.56;100.00;97566.34;4999677;28;20069;-51
2021/11/06 10:50:37;;;;;;;20.50;16.17;;;;;;;13.00;100.00;97568.78;5014766;28;20076;-56
2021/11/06 10:53:05;;;;;;;21.52;16.02;;;;;;;12.66;100.00;97565.53;5007508;28;20065;-54
2021/11/06 10:55:35;;;;;;;20.08;15.93;;;;;;;12.48;100.00;97557.34;5001690;28;20085;-56
2021/11/06 10:58:03;;;;;;;22.08;16.05;;;;;;;12.71;100.00;97547.47;5003732;28;20081;-56
2021/11/06 11:00:34;;;;;;;20.15;15.75;;;;;;;13.04;100.00;97551.66;5008723;28;20084;-60
2021/11/06 11:03:17;;;;;;;;;;;;;;;12.97;100.00;97548.72;5008743;28;20471;-57
2021/11/06 11:05:45;;;;;;;18.60;14.15;;;;;;;12.87;100.00;97544.31;5001462;28;19983;-58
2021/11/06 11:08:14;;;;;;;18.75;14.52;;;;;;;13.17;100.00;97538.19;4995913;28;20062;-57
2021/11/06 11:10:44;;;;;;;17.83;13.95;;;;;;;12.91;100.00;97548.41;5003100;28;20073;-58
2021/11/06 11:13:14;;;;;;;18.13;14.25;;;;;;;12.75;100.00;97536.47;5002374;28;20088;-59
2021/11/06 11:15:45;;;;;;;18.35;14.20;;;;;;;12.34;100.00;97538.19;5001638;28;20270;-57
2021/11/06 11:18:30;;;;;;;18.23;13.95;;;;;;;12.64;100.00;97535.72;5003652;28;20186;-57
2021/11/06 11:21:12;;;;;;;19.33;13.65;;;;;;;12.48;100.00;97530.88;4997610;28;20074;-53
2021/11/06 11:23:41;;;;;;;17.23;13.52;;;;;;;11.92;100.00;97534.66;5002885;28;20086;-51
2021/11/06 11:26:10;;;;;;;17.63;14.33;;;;;;;11.73;100.00;97532.66;5000256;28;20077;-55
2021/11/06 11:28:39;;;;;;;19.10;14.20;;;;;;;12.13;100.00;97528.56;4993640;28;20509;-57
2021/11/06 11:31:10;;;;;;;17.88;13.85;;;;;;;12.47;100.00;97526.56;4983950;28;20086;-57
2021/11/06 11:33:40;;;;;;;18.92;14.57;;;;;;;12.40;100.00;97523.59;5000614;28;20050;-56